sensor_id;sensor_type;location;lat;lon;timestamp;P1;durP1;ratioP1;P2;durP2;ratioP2
71629;SDS011;59479;51.902;8.212;2023-08-30T00:02:14;6.38;;;3.30;;
71629;SDS011;59479;51.902;8.212;2023-08-30T00:04:41;5.07;;;2.93;;
71629;SDS011;59479;51.902;8.212;2023-08-30T00:07:07;5.93;;;3.50;;
71629;SDS011;59479;51.902;8.212;2023-08-30T00:09:32;5.20;;;2.67;;
71629;SDS011;59479;51.902;8.212;2023-08-30T00:11:57;5.27;;;3.00;;
71629;SDS011;59479;51.902;8.212;2023-08-30T00:14:22;6.27;;;3.30;;
71629;SDS011;59479;51.902;8.212;2023-08-30T00:16:48;6.50;;;3.67;;
71629;SDS011;59479;51.902;8.212;2023-08-30T00:19:13;6.47;;;3.83;;
71629;SDS011;59479;51.902;8.212;2023-08-30T00:21:38;6.47;;;3.10;;
71629;SDS011;59479;51.902;8.212;2023-08-30T00:24:04;6.57;;;3.40;;
71629;SDS011;59479;51.902;8.212;2023-08-30T00:26:30;5.82;;;3.33;;
71629;SDS011;59479;51.902;8.212;2023-08-30T00:28:56;5.97;;;3.20;;
71629;SDS011;59479;51.902;8.212;2023-08-30T00:31:21;5.80;;;3.53;;
71629;SDS011;59479;51.902;8.212;2023-08-30T00:33:48;5.53;;;3.00;;
71629;SDS011;59479;51.902;8.212;2023-08-30T00:36:13;6.22;;;3.90;;
71629;SDS011;59479;51.902;8.212;2023-08-30T00:38:38;8.80;;;3.80;;
71629;SDS011;59479;51.902;8.212;2023-08-30T00:41:04;7.03;;;3.60;;
71629;SDS011;59479;51.902;8.212;2023-08-30T00:43:29;6.43;;;3.78;;
71629;SDS011;59479;51.902;8.212;2023-08-30T00:45:54;6.40;;;3.80;;
71629;SDS011;59479;51.902;8.212;2023-08-30T00:48:20;6.03;;;3.63;;
71629;SDS011;59479;51.902;8.212;2023-08-30T00:50:45;6.10;;;3.40;;
71629;SDS011;59479;51.902;8.212;2023-08-30T00:53:11;6.68;;;3.50;;
71629;SDS011;59479;51.902;8.212;2023-08-30T00:55:37;6.63;;;3.80;;
71629;SDS011;59479;51.902;8.212;2023-08-30T00:58:03;5.60;;;3.20;;
71629;SDS011;59479;51.902;8.212;2023-08-30T01:00:29;5.82;;;3.65;;
71629;SDS011;59479;51.902;8.212;2023-08-30T01:02:55;5.23;;;3.50;;
71629;SDS011;59479;51.902;8.212;2023-08-30T01:05:21;6.65;;;3.28;;
71629;SDS011;59479;51.902;8.212;2023-08-30T01:07:47;5.47;;;3.40;;
71629;SDS011;59479;51.902;8.212;2023-08-30T01:10:13;6.47;;;3.83;;
71629;SDS011;59479;51.902;8.212;2023-08-30T01:12:48;5.57;;;3.40;;
71629;SDS011;59479;51.902;8.212;2023-08-30T01:15:20;6.85;;;3.42;;
71629;SDS011;59479;51.902;8.212;2023-08-30T01:17:47;6.38;;;3.88;;
71629;SDS011;59479;51.902;8.212;2023-08-30T01:20:14;5.60;;;3.67;;
71629;SDS011;59479;51.902;8.212;2023-08-30T01:22:46;5.53;;;3.20;;
71629;SDS011;59479;51.902;8.212;2023-08-30T01:25:20;5.28;;;3.30;;
71629;SDS011;59479;51.902;8.212;2023-08-30T01:28:10;6.65;;;3.67;;
71629;SDS011;59479;51.902;8.212;2023-08-30T01:30:39;5.63;;;3.58;;
71629;SDS011;59479;51.902;8.212;2023-08-30T01:33:06;5.43;;;3.43;;
71629;SDS011;59479;51.902;8.212;2023-08-30T01:35:33;6.03;;;3.45;;
71629;SDS011;59479;51.902;8.212;2023-08-30T01:38:02;6.63;;;3.97;;
71629;SDS011;59479;51.902;8.212;2023-08-30T01:40:28;6.35;;;3.88;;
71629;SDS011;59479;51.902;8.212;2023-08-30T01:42:57;5.97;;;3.67;;
71629;SDS011;59479;51.902;8.212;2023-08-30T01:45:23;6.30;;;3.63;;
71629;SDS011;59479;51.902;8.212;2023-08-30T01:47:49;5.90;;;3.60;;
71629;SDS011;59479;51.902;8.212;2023-08-30T01:50:17;6.47;;;3.78;;
71629;SDS011;59479;51.902;8.212;2023-08-30T01:52:44;5.93;;;3.58;;
71629;SDS011;59479;51.902;8.212;2023-08-30T01:55:10;6.80;;;4.30;;
71629;SDS011;59479;51.902;8.212;2023-08-30T01:57:38;6.00;;;3.53;;
71629;SDS011;59479;51.902;8.212;2023-08-30T02:00:04;5.22;;;3.20;;
71629;SDS011;59479;51.902;8.212;2023-08-30T02:02:30;5.80;;;3.70;;
71629;SDS011;59479;51.902;8.212;2023-08-30T02:04:56;5.72;;;3.40;;
71629;SDS011;59479;51.902;8.212;2023-08-30T02:07:33;6.00;;;4.00;;
71629;SDS011;59479;51.902;8.212;2023-08-30T02:10:06;6.10;;;3.77;;
71629;SDS011;59479;51.902;8.212;2023-08-30T02:12:42;6.38;;;3.85;;
71629;SDS011;59479;51.902;8.212;2023-08-30T02:15:15;6.10;;;3.30;;
71629;SDS011;59479;51.902;8.212;2023-08-30T02:17:42;5.72;;;3.45;;
71629;SDS011;59479;51.902;8.212;2023-08-30T02:20:09;6.15;;;3.58;;
71629;SDS011;59479;51.902;8.212;2023-08-30T02:22:34;5.63;;;3.23;;
71629;SDS011;59479;51.902;8.212;2023-08-30T02:25:00;6.75;;;3.28;;
71629;SDS011;59479;51.902;8.212;2023-08-30T02:27:29;5.30;;;3.57;;
71629;SDS011;59479;51.902;8.212;2023-08-30T02:29:58;6.35;;;3.80;;
71629;SDS011;59479;51.902;8.212;2023-08-30T02:32:23;5.70;;;3.50;;
71629;SDS011;59479;51.902;8.212;2023-08-30T02:34:50;5.83;;;3.50;;
71629;SDS011;59479;51.902;8.212;2023-08-30T02:37:16;5.30;;;3.38;;
71629;SDS011;59479;51.902;8.212;2023-08-30T02:39:41;6.60;;;3.53;;
71629;SDS011;59479;51.902;8.212;2023-08-30T02:42:06;5.33;;;3.30;;
71629;SDS011;59479;51.902;8.212;2023-08-30T02:44:32;6.70;;;4.00;;
71629;SDS011;59479;51.902;8.212;2023-08-30T02:46:57;6.73;;;3.77;;
71629;SDS011;59479;51.902;8.212;2023-08-30T02:49:22;5.80;;;3.70;;
71629;SDS011;59479;51.902;8.212;2023-08-30T02:51:48;5.63;;;3.17;;
71629;SDS011;59479;51.902;8.212;2023-08-30T02:54:13;6.13;;;3.60;;
71629;SDS011;59479;51.902;8.212;2023-08-30T02:56:39;6.93;;;3.37;;
71629;SDS011;59479;51.902;8.212;2023-08-30T02:59:05;6.78;;;3.63;;
71629;SDS011;59479;51.902;8.212;2023-08-30T03:01:31;5.70;;;3.20;;
71629;SDS011;59479;51.902;8.212;2023-08-30T03:03:56;6.30;;;3.60;;
71629;SDS011;59479;51.902;8.212;2023-08-30T03:06:21;5.97;;;3.42;;
71629;SDS011;59479;51.902;8.212;2023-08-30T03:08:46;5.87;;;3.40;;
71629;SDS011;59479;51.902;8.212;2023-08-30T03:11:12;6.97;;;3.43;;
71629;SDS011;59479;51.902;8.212;2023-08-30T03:13:38;10.52;;;3.72;;
71629;SDS011;59479;51.902;8.212;2023-08-30T03:16:12;5.43;;;3.03;;
71629;SDS011;59479;51.902;8.212;2023-08-30T03:18:39;6.45;;;3.50;;
71629;SDS011;59479;51.902;8.212;2023-08-30T03:21:05;5.60;;;3.13;;
71629;SDS011;59479;51.902;8.212;2023-08-30T03:23:31;7.90;;;3.07;;
71629;SDS011;59479;51.902;8.212;2023-08-30T03:25:57;6.57;;;3.25;;
71629;SDS011;59479;51.902;8.212;2023-08-30T03:28:32;5.95;;;3.47;;
71629;SDS011;59479;51.902;8.212;2023-08-30T03:30:57;6.83;;;3.23;;
71629;SDS011;59479;51.902;8.212;2023-08-30T03:33:22;7.23;;;3.40;;
71629;SDS011;59479;51.902;8.212;2023-08-30T03:35:48;5.57;;;3.13;;
71629;SDS011;59479;51.902;8.212;2023-08-30T03:38:13;5.47;;;2.90;;
71629;SDS011;59479;51.902;8.212;2023-08-30T03:40:38;5.30;;;3.33;;
71629;SDS011;59479;51.902;8.212;2023-08-30T03:43:04;6.80;;;3.50;;
71629;SDS011;59479;51.902;8.212;2023-08-30T03:45:33;6.53;;;3.63;;
71629;SDS011;59479;51.902;8.212;2023-08-30T03:47:59;7.50;;;3.55;;
71629;SDS011;59479;51.902;8.212;2023-08-30T03:50:25;6.83;;;3.80;;
71629;SDS011;59479;51.902;8.212;2023-08-30T03:52:50;5.63;;;3.37;;
71629;SDS011;59479;51.902;8.212;2023-08-30T03:55:15;5.90;;;3.70;;
71629;SDS011;59479;51.902;8.212;2023-08-30T03:57:41;6.72;;;3.50;;
71629;SDS011;59479;51.902;8.212;2023-08-30T04:00:06;6.10;;;3.72;;
71629;SDS011;59479;51.902;8.212;2023-08-30T04:02:32;7.27;;;3.33;;
71629;SDS011;59479;51.902;8.212;2023-08-30T04:04:57;6.03;;;3.63;;
71629;SDS011;59479;51.902;8.212;2023-08-30T04:07:23;7.17;;;3.40;;
71629;SDS011;59479;51.902;8.212;2023-08-30T04:09:48;5.27;;;3.00;;
71629;SDS011;59479;51.902;8.212;2023-08-30T04:12:14;5.95;;;3.33;;
71629;SDS011;59479;51.902;8.212;2023-08-30T04:14:40;5.97;;;3.30;;
71629;SDS011;59479;51.902;8.212;2023-08-30T04:17:05;4.83;;;2.97;;
71629;SDS011;59479;51.902;8.212;2023-08-30T04:19:30;5.57;;;3.20;;
71629;SDS011;59479;51.902;8.212;2023-08-30T04:21:56;5.50;;;2.97;;
71629;SDS011;59479;51.902;8.212;2023-08-30T04:24:21;5.23;;;2.90;;
71629;SDS011;59479;51.902;8.212;2023-08-30T04:26:46;7.03;;;3.37;;
71629;SDS011;59479;51.902;8.212;2023-08-30T04:29:16;5.32;;;3.10;;
71629;SDS011;59479;51.902;8.212;2023-08-30T04:31:42;6.00;;;3.30;;
71629;SDS011;59479;51.902;8.212;2023-08-30T04:34:08;6.10;;;3.42;;
71629;SDS011;59479;51.902;8.212;2023-08-30T04:36:33;7.53;;;3.53;;
71629;SDS011;59479;51.902;8.212;2023-08-30T04:38:58;5.57;;;3.40;;
71629;SDS011;59479;51.902;8.212;2023-08-30T04:41:24;5.13;;;3.20;;
71629;SDS011;59479;51.902;8.212;2023-08-30T04:43:49;4.97;;;2.67;;
71629;SDS011;59479;51.902;8.212;2023-08-30T04:46:14;6.80;;;3.85;;
71629;SDS011;59479;51.902;8.212;2023-08-30T04:48:40;6.27;;;3.87;;
71629;SDS011;59479;51.902;8.212;2023-08-30T04:51:05;6.97;;;3.33;;
71629;SDS011;59479;51.902;8.212;2023-08-30T04:53:30;6.33;;;3.67;;
71629;SDS011;59479;51.902;8.212;2023-08-30T04:55:56;6.80;;;3.97;;
71629;SDS011;59479;51.902;8.212;2023-08-30T04:58:21;6.40;;;3.87;;
71629;SDS011;59479;51.902;8.212;2023-08-30T05:00:47;6.95;;;3.58;;
71629;SDS011;59479;51.902;8.212;2023-08-30T05:03:12;6.93;;;3.80;;
71629;SDS011;59479;51.902;8.212;2023-08-30T05:05:38;7.50;;;3.57;;
71629;SDS011;59479;51.902;8.212;2023-08-30T05:08:03;9.83;;;4.03;;
71629;SDS011;59479;51.902;8.212;2023-08-30T05:10:29;6.93;;;3.83;;
71629;SDS011;59479;51.902;8.212;2023-08-30T05:12:54;7.20;;;4.23;;
71629;SDS011;59479;51.902;8.212;2023-08-30T05:15:20;8.77;;;3.77;;
71629;SDS011;59479;51.902;8.212;2023-08-30T05:17:45;5.87;;;3.43;;
71629;SDS011;59479;51.902;8.212;2023-08-30T05:20:11;6.80;;;3.78;;
71629;SDS011;59479;51.902;8.212;2023-08-30T05:22:36;5.97;;;3.37;;
71629;SDS011;59479;51.902;8.212;2023-08-30T05:25:01;8.87;;;3.80;;
71629;SDS011;59479;51.902;8.212;2023-08-30T05:27:27;6.03;;;3.70;;
71629;SDS011;59479;51.902;8.212;2023-08-30T05:29:53;6.87;;;3.93;;
71629;SDS011;59479;51.902;8.212;2023-08-30T05:32:18;7.70;;;3.90;;
71629;SDS011;59479;51.902;8.212;2023-08-30T05:34:43;7.37;;;3.53;;
71629;SDS011;59479;51.902;8.212;2023-08-30T05:37:09;7.97;;;4.00;;
71629;SDS011;59479;51.902;8.212;2023-08-30T05:39:34;9.15;;;3.75;;
71629;SDS011;59479;51.902;8.212;2023-08-30T05:42:00;8.87;;;3.63;;
71629;SDS011;59479;51.902;8.212;2023-08-30T05:44:25;6.60;;;3.43;;
71629;SDS011;59479;51.902;8.212;2023-08-30T05:46:51;6.17;;;3.60;;
71629;SDS011;59479;51.902;8.212;2023-08-30T05:49:16;8.63;;;4.00;;
71629;SDS011;59479;51.902;8.212;2023-08-30T05:51:41;6.70;;;4.37;;
71629;SDS011;59479;51.902;8.212;2023-08-30T05:54:07;7.27;;;4.07;;
71629;SDS011;59479;51.902;8.212;2023-08-30T05:56:32;6.88;;;3.85;;
71629;SDS011;59479;51.902;8.212;2023-08-30T05:58:57;5.83;;;3.23;;
71629;SDS011;59479;51.902;8.212;2023-08-30T06:01:23;6.30;;;3.67;;
71629;SDS011;59479;51.902;8.212;2023-08-30T06:03:48;6.93;;;3.70;;
71629;SDS011;59479;51.902;8.212;2023-08-30T06:06:14;7.63;;;4.37;;
71629;SDS011;59479;51.902;8.212;2023-08-30T06:08:42;7.07;;;3.90;;
71629;SDS011;59479;51.902;8.212;2023-08-30T06:11:07;6.70;;;3.63;;
71629;SDS011;59479;51.902;8.212;2023-08-30T06:13:33;6.93;;;4.05;;
71629;SDS011;59479;51.902;8.212;2023-08-30T06:15:58;7.63;;;4.27;;
71629;SDS011;59479;51.902;8.212;2023-08-30T06:18:24;7.60;;;4.37;;
71629;SDS011;59479;51.902;8.212;2023-08-30T06:20:49;6.93;;;3.87;;
71629;SDS011;59479;51.902;8.212;2023-08-30T06:23:14;8.07;;;4.60;;
71629;SDS011;59479;51.902;8.212;2023-08-30T06:25:43;6.70;;;4.25;;
71629;SDS011;59479;51.902;8.212;2023-08-30T06:28:08;9.20;;;4.30;;
71629;SDS011;59479;51.902;8.212;2023-08-30T06:30:34;8.60;;;4.80;;
71629;SDS011;59479;51.902;8.212;2023-08-30T06:32:59;9.90;;;5.00;;
71629;SDS011;59479;51.902;8.212;2023-08-30T06:35:25;10.17;;;5.00;;
71629;SDS011;59479;51.902;8.212;2023-08-30T06:37:50;9.17;;;4.80;;
71629;SDS011;59479;51.902;8.212;2023-08-30T06:40:16;9.02;;;5.13;;
71629;SDS011;59479;51.902;8.212;2023-08-30T06:42:41;8.73;;;4.97;;
71629;SDS011;59479;51.902;8.212;2023-08-30T06:45:07;9.40;;;5.20;;
71629;SDS011;59479;51.902;8.212;2023-08-30T06:47:32;12.13;;;4.97;;
71629;SDS011;59479;51.902;8.212;2023-08-30T06:49:57;9.43;;;5.43;;
71629;SDS011;59479;51.902;8.212;2023-08-30T06:52:24;11.80;;;5.22;;
71629;SDS011;59479;51.902;8.212;2023-08-30T06:54:49;9.25;;;5.07;;
71629;SDS011;59479;51.902;8.212;2023-08-30T06:57:15;8.47;;;5.20;;
71629;SDS011;59479;51.902;8.212;2023-08-30T06:59:40;10.63;;;5.13;;
71629;SDS011;59479;51.902;8.212;2023-08-30T07:02:05;10.30;;;5.10;;
71629;SDS011;59479;51.902;8.212;2023-08-30T07:04:30;10.00;;;5.20;;
71629;SDS011;59479;51.902;8.212;2023-08-30T07:06:56;9.53;;;5.40;;
71629;SDS011;59479;51.902;8.212;2023-08-30T07:09:21;9.13;;;5.27;;
71629;SDS011;59479;51.902;8.212;2023-08-30T07:11:53;11.40;;;5.82;;
71629;SDS011;59479;51.902;8.212;2023-08-30T07:14:18;12.20;;;5.40;;
71629;SDS011;59479;51.902;8.212;2023-08-30T07:16:45;10.60;;;6.18;;
71629;SDS011;59479;51.902;8.212;2023-08-30T07:19:10;11.50;;;5.57;;
71629;SDS011;59479;51.902;8.212;2023-08-30T07:21:36;10.63;;;5.50;;
71629;SDS011;59479;51.902;8.212;2023-08-30T07:24:03;11.57;;;6.20;;
71629;SDS011;59479;51.902;8.212;2023-08-30T07:26:30;10.60;;;6.18;;
71629;SDS011;59479;51.902;8.212;2023-08-30T07:28:55;9.37;;;5.63;;
71629;SDS011;59479;51.902;8.212;2023-08-30T07:31:20;11.77;;;5.87;;
71629;SDS011;59479;51.902;8.212;2023-08-30T07:33:46;11.02;;;6.20;;
71629;SDS011;59479;51.902;8.212;2023-08-30T07:36:12;10.23;;;5.77;;
71629;SDS011;59479;51.902;8.212;2023-08-30T07:38:37;13.00;;;6.83;;
71629;SDS011;59479;51.902;8.212;2023-08-30T07:41:02;11.50;;;6.70;;
71629;SDS011;59479;51.902;8.212;2023-08-30T07:43:28;11.27;;;6.63;;
71629;SDS011;59479;51.902;8.212;2023-08-30T07:45:53;11.27;;;6.17;;
71629;SDS011;59479;51.902;8.212;2023-08-30T07:48:18;15.17;;;6.40;;
71629;SDS011;59479;51.902;8.212;2023-08-30T07:50:44;12.70;;;6.73;;
71629;SDS011;59479;51.902;8.212;2023-08-30T07:53:09;13.80;;;6.87;;
71629;SDS011;59479;51.902;8.212;2023-08-30T07:55:35;14.70;;;7.07;;
71629;SDS011;59479;51.902;8.212;2023-08-30T07:58:01;13.15;;;7.07;;
71629;SDS011;59479;51.902;8.212;2023-08-30T08:00:28;15.00;;;7.10;;
71629;SDS011;59479;51.902;8.212;2023-08-30T08:02:54;12.05;;;6.20;;
71629;SDS011;59479;51.902;8.212;2023-08-30T08:05:20;13.13;;;7.03;;
71629;SDS011;59479;51.902;8.212;2023-08-30T08:07:45;17.07;;;6.43;;
71629;SDS011;59479;51.902;8.212;2023-08-30T08:10:10;12.23;;;6.22;;
71629;SDS011;59479;51.902;8.212;2023-08-30T08:12:36;12.15;;;6.20;;
71629;SDS011;59479;51.902;8.212;2023-08-30T08:15:01;11.53;;;6.00;;
71629;SDS011;59479;51.902;8.212;2023-08-30T08:17:27;11.90;;;6.20;;
71629;SDS011;59479;51.902;8.212;2023-08-30T08:19:53;14.70;;;6.43;;
71629;SDS011;59479;51.902;8.212;2023-08-30T08:22:19;13.33;;;6.93;;
71629;SDS011;59479;51.902;8.212;2023-08-30T08:24:44;13.67;;;6.80;;
71629;SDS011;59479;51.902;8.212;2023-08-30T08:27:11;14.30;;;5.78;;
71629;SDS011;59479;51.902;8.212;2023-08-30T08:29:36;14.27;;;6.95;;
71629;SDS011;59479;51.902;8.212;2023-08-30T08:32:03;13.05;;;6.60;;
71629;SDS011;59479;51.902;8.212;2023-08-30T08:34:28;13.53;;;6.47;;
71629;SDS011;59479;51.902;8.212;2023-08-30T08:36:54;11.70;;;6.13;;
71629;SDS011;59479;51.902;8.212;2023-08-30T08:39:19;13.60;;;5.23;;
71629;SDS011;59479;51.902;8.212;2023-08-30T08:41:44;14.43;;;6.90;;
71629;SDS011;59479;51.902;8.212;2023-08-30T08:44:10;11.73;;;6.13;;
71629;SDS011;59479;51.902;8.212;2023-08-30T08:46:38;18.60;;;6.95;;
71629;SDS011;59479;51.902;8.212;2023-08-30T08:51:39;13.70;;;5.80;;
71629;SDS011;59479;51.902;8.212;2023-08-30T08:54:05;13.10;;;6.55;;
71629;SDS011;59479;51.902;8.212;2023-08-30T08:56:31;11.63;;;6.30;;
71629;SDS011;59479;51.902;8.212;2023-08-30T08:58:57;18.58;;;6.80;;
71629;SDS011;59479;51.902;8.212;2023-08-30T09:01:24;11.30;;;6.38;;
71629;SDS011;59479;51.902;8.212;2023-08-30T09:03:50;13.50;;;6.83;;
71629;SDS011;59479;51.902;8.212;2023-08-30T09:06:15;12.35;;;6.65;;
71629;SDS011;59479;51.902;8.212;2023-08-30T09:08:41;12.18;;;6.00;;
71629;SDS011;59479;51.902;8.212;2023-08-30T09:11:06;13.23;;;6.03;;
71629;SDS011;59479;51.902;8.212;2023-08-30T09:13:32;13.67;;;5.40;;
71629;SDS011;59479;51.902;8.212;2023-08-30T09:15:57;9.37;;;4.47;;
71629;SDS011;59479;51.902;8.212;2023-08-30T09:18:23;8.20;;;4.00;;
71629;SDS011;59479;51.902;8.212;2023-08-30T09:20:52;8.23;;;4.15;;
71629;SDS011;59479;51.902;8.212;2023-08-30T09:23:18;10.38;;;3.53;;
71629;SDS011;59479;51.902;8.212;2023-08-30T09:25:45;7.45;;;3.67;;
71629;SDS011;59479;51.902;8.212;2023-08-30T09:28:10;8.43;;;3.33;;
71629;SDS011;59479;51.902;8.212;2023-08-30T09:30:36;7.77;;;3.30;;
71629;SDS011;59479;51.902;8.212;2023-08-30T09:33:02;7.27;;;3.00;;
71629;SDS011;59479;51.902;8.212;2023-08-30T09:35:28;7.60;;;3.88;;
71629;SDS011;59479;51.902;8.212;2023-08-30T09:37:53;9.25;;;3.65;;
71629;SDS011;59479;51.902;8.212;2023-08-30T09:40:19;12.27;;;3.40;;
71629;SDS011;59479;51.902;8.212;2023-08-30T09:42:45;6.15;;;2.83;;
71629;SDS011;59479;51.902;8.212;2023-08-30T09:45:22;6.43;;;2.87;;
71629;SDS011;59479;51.902;8.212;2023-08-30T09:47:48;6.75;;;3.50;;
71629;SDS011;59479;51.902;8.212;2023-08-30T09:50:17;5.55;;;2.72;;
71629;SDS011;59479;51.902;8.212;2023-08-30T09:52:45;5.07;;;2.50;;
71629;SDS011;59479;51.902;8.212;2023-08-30T09:55:11;7.35;;;3.03;;
71629;SDS011;59479;51.902;8.212;2023-08-30T09:57:37;6.78;;;2.70;;
71629;SDS011;59479;51.902;8.212;2023-08-30T10:00:03;4.90;;;2.33;;
71629;SDS011;59479;51.902;8.212;2023-08-30T10:02:30;5.13;;;2.40;;
71629;SDS011;59479;51.902;8.212;2023-08-30T10:04:56;5.53;;;2.38;;
71629;SDS011;59479;51.902;8.212;2023-08-30T10:07:23;5.17;;;2.30;;
71629;SDS011;59479;51.902;8.212;2023-08-30T10:09:50;5.28;;;2.40;;
71629;SDS011;59479;51.902;8.212;2023-08-30T10:12:19;4.97;;;2.55;;
71629;SDS011;59479;51.902;8.212;2023-08-30T10:14:46;5.63;;;2.35;;
71629;SDS011;59479;51.902;8.212;2023-08-30T10:17:12;5.17;;;2.50;;
71629;SDS011;59479;51.902;8.212;2023-08-30T10:19:39;8.10;;;2.53;;
71629;SDS011;59479;51.902;8.212;2023-08-30T10:22:06;5.13;;;2.35;;
71629;SDS011;59479;51.902;8.212;2023-08-30T10:24:38;7.00;;;2.50;;
71629;SDS011;59479;51.902;8.212;2023-08-30T10:27:06;4.28;;;2.10;;
71629;SDS011;59479;51.902;8.212;2023-08-30T10:29:33;5.05;;;2.45;;
71629;SDS011;59479;51.902;8.212;2023-08-30T10:32:02;5.75;;;3.03;;
71629;SDS011;59479;51.902;8.212;2023-08-30T10:34:31;6.32;;;2.42;;
71629;SDS011;59479;51.902;8.212;2023-08-30T10:37:01;6.90;;;2.67;;
71629;SDS011;59479;51.902;8.212;2023-08-30T10:39:35;4.72;;;2.40;;
71629;SDS011;59479;51.902;8.212;2023-08-30T10:42:06;6.00;;;2.50;;
71629;SDS011;59479;51.902;8.212;2023-08-30T10:47:18;5.18;;;2.60;;
71629;SDS011;59479;51.902;8.212;2023-08-30T10:49:46;4.63;;;2.70;;
71629;SDS011;59479;51.902;8.212;2023-08-30T10:52:11;4.72;;;2.30;;
71629;SDS011;59479;51.902;8.212;2023-08-30T10:54:37;5.32;;;2.67;;
71629;SDS011;59479;51.902;8.212;2023-08-30T10:57:11;4.50;;;2.10;;
71629;SDS011;59479;51.902;8.212;2023-08-30T10:59:38;6.45;;;2.30;;
71629;SDS011;59479;51.902;8.212;2023-08-30T11:02:03;4.77;;;2.50;;
71629;SDS011;59479;51.902;8.212;2023-08-30T11:04:30;5.38;;;2.58;;
71629;SDS011;59479;51.902;8.212;2023-08-30T11:06:55;6.77;;;2.50;;
71629;SDS011;59479;51.902;8.212;2023-08-30T11:09:23;7.35;;;2.38;;
71629;SDS011;59479;51.902;8.212;2023-08-30T11:11:50;4.82;;;2.53;;
71629;SDS011;59479;51.902;8.212;2023-08-30T11:14:16;4.63;;;2.00;;
71629;SDS011;59479;51.902;8.212;2023-08-30T11:16:42;5.32;;;2.65;;
71629;SDS011;59479;51.902;8.212;2023-08-30T11:19:08;5.13;;;2.90;;
71629;SDS011;59479;51.902;8.212;2023-08-30T11:21:36;4.43;;;2.20;;
71629;SDS011;59479;51.902;8.212;2023-08-30T11:24:03;5.18;;;2.53;;
71629;SDS011;59479;51.902;8.212;2023-08-30T11:26:28;5.85;;;2.45;;
71629;SDS011;59479;51.902;8.212;2023-08-30T11:28:54;5.00;;;2.40;;
71629;SDS011;59479;51.902;8.212;2023-08-30T11:31:20;4.75;;;2.58;;
71629;SDS011;59479;51.902;8.212;2023-08-30T11:33:50;6.20;;;2.85;;
71629;SDS011;59479;51.902;8.212;2023-08-30T11:36:17;5.68;;;2.83;;
71629;SDS011;59479;51.902;8.212;2023-08-30T11:38:43;5.25;;;2.70;;
71629;SDS011;59479;51.902;8.212;2023-08-30T11:41:10;6.32;;;2.40;;
71629;SDS011;59479;51.902;8.212;2023-08-30T11:43:35;8.13;;;2.53;;
71629;SDS011;59479;51.902;8.212;2023-08-30T11:46:02;5.33;;;2.60;;
71629;SDS011;59479;51.902;8.212;2023-08-30T11:48:28;5.13;;;2.60;;
71629;SDS011;59479;51.902;8.212;2023-08-30T11:50:54;7.03;;;3.13;;
71629;SDS011;59479;51.902;8.212;2023-08-30T11:53:19;6.00;;;2.87;;
71629;SDS011;59479;51.902;8.212;2023-08-30T11:55:45;6.53;;;2.67;;
71629;SDS011;59479;51.902;8.212;2023-08-30T11:58:10;5.22;;;2.78;;
71629;SDS011;59479;51.902;8.212;2023-08-30T12:00:36;5.30;;;2.70;;
71629;SDS011;59479;51.902;8.212;2023-08-30T12:03:03;8.13;;;3.15;;
71629;SDS011;59479;51.902;8.212;2023-08-30T12:05:30;5.77;;;2.77;;
71629;SDS011;59479;51.902;8.212;2023-08-30T12:07:59;7.47;;;2.70;;
71629;SDS011;59479;51.902;8.212;2023-08-30T12:10:28;6.15;;;3.15;;
71629;SDS011;59479;51.902;8.212;2023-08-30T12:12:55;5.32;;;2.90;;
71629;SDS011;59479;51.902;8.212;2023-08-30T12:15:22;4.47;;;2.40;;
71629;SDS011;59479;51.902;8.212;2023-08-30T12:17:49;5.35;;;2.47;;
71629;SDS011;59479;51.902;8.212;2023-08-30T12:20:15;4.40;;;2.37;;
71629;SDS011;59479;51.902;8.212;2023-08-30T12:22:42;6.05;;;2.95;;
71629;SDS011;59479;51.902;8.212;2023-08-30T12:25:18;4.93;;;3.10;;
71629;SDS011;59479;51.902;8.212;2023-08-30T12:27:48;5.10;;;3.00;;
71629;SDS011;59479;51.902;8.212;2023-08-30T12:30:14;4.70;;;2.60;;
71629;SDS011;59479;51.902;8.212;2023-08-30T12:32:41;5.72;;;3.17;;
71629;SDS011;59479;51.902;8.212;2023-08-30T12:35:07;5.70;;;2.78;;
71629;SDS011;59479;51.902;8.212;2023-08-30T12:37:32;5.80;;;2.70;;
71629;SDS011;59479;51.902;8.212;2023-08-30T12:39:58;6.17;;;3.27;;
71629;SDS011;59479;51.902;8.212;2023-08-30T12:42:23;5.67;;;3.50;;
71629;SDS011;59479;51.902;8.212;2023-08-30T12:44:48;8.93;;;3.33;;
71629;SDS011;59479;51.902;8.212;2023-08-30T12:47:14;8.13;;;4.07;;
71629;SDS011;59479;51.902;8.212;2023-08-30T12:49:39;6.00;;;3.90;;
71629;SDS011;59479;51.902;8.212;2023-08-30T12:52:05;6.07;;;3.80;;
71629;SDS011;59479;51.902;8.212;2023-08-30T12:54:31;7.07;;;4.57;;
71629;SDS011;59479;51.902;8.212;2023-08-30T12:56:56;9.00;;;4.20;;
71629;SDS011;59479;51.902;8.212;2023-08-30T12:59:21;10.50;;;4.82;;
71629;SDS011;59479;51.902;8.212;2023-08-30T13:01:46;7.87;;;4.77;;
71629;SDS011;59479;51.902;8.212;2023-08-30T13:04:12;9.60;;;4.70;;
71629;SDS011;59479;51.902;8.212;2023-08-30T13:06:37;7.10;;;4.40;;
71629;SDS011;59479;51.902;8.212;2023-08-30T13:09:02;6.70;;;4.00;;
71629;SDS011;59479;51.902;8.212;2023-08-30T13:11:28;6.93;;;4.10;;
71629;SDS011;59479;51.902;8.212;2023-08-30T13:13:55;7.38;;;4.13;;
71629;SDS011;59479;51.902;8.212;2023-08-30T13:16:22;8.43;;;4.18;;
71629;SDS011;59479;51.902;8.212;2023-08-30T13:18:48;7.70;;;4.63;;
71629;SDS011;59479;51.902;8.212;2023-08-30T13:21:13;6.00;;;3.42;;
71629;SDS011;59479;51.902;8.212;2023-08-30T13:23:39;5.80;;;3.53;;
71629;SDS011;59479;51.902;8.212;2023-08-30T13:26:04;6.33;;;3.70;;
71629;SDS011;59479;51.902;8.212;2023-08-30T13:28:29;6.50;;;3.43;;
71629;SDS011;59479;51.902;8.212;2023-08-30T13:30:55;8.20;;;4.07;;
71629;SDS011;59479;51.902;8.212;2023-08-30T13:33:20;6.30;;;3.77;;
71629;SDS011;59479;51.902;8.212;2023-08-30T13:35:49;6.13;;;3.83;;
71629;SDS011;59479;51.902;8.212;2023-08-30T13:38:18;5.65;;;3.38;;
71629;SDS011;59479;51.902;8.212;2023-08-30T13:40:44;5.25;;;3.13;;
71629;SDS011;59479;51.902;8.212;2023-08-30T13:43:09;5.07;;;3.33;;
71629;SDS011;59479;51.902;8.212;2023-08-30T13:45:35;4.27;;;2.90;;
71629;SDS011;59479;51.902;8.212;2023-08-30T13:48:00;5.90;;;3.20;;
71629;SDS011;59479;51.902;8.212;2023-08-30T13:50:26;5.45;;;2.90;;
71629;SDS011;59479;51.902;8.212;2023-08-30T13:52:55;5.80;;;2.72;;
71629;SDS011;59479;51.902;8.212;2023-08-30T13:55:21;5.73;;;3.40;;
71629;SDS011;59479;51.902;8.212;2023-08-30T13:57:46;6.53;;;2.90;;
71629;SDS011;59479;51.902;8.212;2023-08-30T14:00:12;5.03;;;2.83;;
71629;SDS011;59479;51.902;8.212;2023-08-30T14:02:38;5.43;;;3.33;;
71629;SDS011;59479;51.902;8.212;2023-08-30T14:05:03;6.93;;;2.80;;
71629;SDS011;59479;51.902;8.212;2023-08-30T14:07:29;5.07;;;2.88;;
71629;SDS011;59479;51.902;8.212;2023-08-30T14:09:54;5.07;;;2.97;;
71629;SDS011;59479;51.902;8.212;2023-08-30T14:12:20;4.80;;;2.60;;
71629;SDS011;59479;51.902;8.212;2023-08-30T14:14:45;5.23;;;2.57;;
71629;SDS011;59479;51.902;8.212;2023-08-30T14:17:10;5.70;;;3.20;;
71629;SDS011;59479;51.902;8.212;2023-08-30T14:19:36;4.93;;;2.72;;
71629;SDS011;59479;51.902;8.212;2023-08-30T14:22:02;5.00;;;3.00;;
71629;SDS011;59479;51.902;8.212;2023-08-30T14:24:29;4.75;;;2.60;;
71629;SDS011;59479;51.902;8.212;2023-08-30T14:26:54;5.17;;;2.73;;
71629;SDS011;59479;51.902;8.212;2023-08-30T14:29:20;6.03;;;2.73;;
71629;SDS011;59479;51.902;8.212;2023-08-30T14:31:45;5.15;;;2.80;;
71629;SDS011;59479;51.902;8.212;2023-08-30T14:34:11;4.73;;;2.77;;
71629;SDS011;59479;51.902;8.212;2023-08-30T14:36:36;4.57;;;2.80;;
71629;SDS011;59479;51.902;8.212;2023-08-30T14:39:01;5.07;;;3.03;;
71629;SDS011;59479;51.902;8.212;2023-08-30T14:41:28;4.68;;;2.45;;
71629;SDS011;59479;51.902;8.212;2023-08-30T14:43:53;5.03;;;2.80;;
71629;SDS011;59479;51.902;8.212;2023-08-30T14:46:19;4.40;;;2.40;;